Time,TemperatureF,DewpointF,PressureIn,WindDirection,WindDirectionDegrees,WindSpeedMPH,WindSpeedGustMPH,Humidity,HourlyPrecipIn,Conditions,Clouds,dailyrainin,SoftwareType,DateUTC
2013-08-08 00:00:00,61.0,56.8,29.95,North,353,0.0,0.0,86,0.00,,,0.00,Wunderground v.1.15,2013-08-08 05:00:00,
2013-08-08 00:10:00,60.5,56.3,29.95,North,352,0.0,0.0,86,0.00,,,0.00,Wunderground v.1.15,2013-08-08 05:10:00,
2013-08-08 00:15:00,60.1,55.9,29.95,North,353,0.0,0.0,86,0.00,,,0.00,Wunderground v.1.15,2013-08-08 05:15:00,
2013-08-08 00:20:00,59.9,55.7,29.95,North,354,0.0,0.0,86,0.00,,,0.00,Wunderground v.1.15,2013-08-08 05:20:00,
2013-08-08 00:25:00,59.6,55.4,29.95,North,354,0.0,0.0,86,0.00,,,0.00,Wunderground v.1.15,2013-08-08 05:25:00,
2013-08-08 00:35:00,59.2,55.3,29.95,NNW,344,0.0,0.0,87,0.00,,,0.00,Wunderground v.1.15,2013-08-08 05:35:00,
2013-08-08 00:40:00,58.9,55.4,29.95,NNW,347,0.0,0.0,88,0.00,,,0.00,Wunderground v.1.15,2013-08-08 05:40:00,
2013-08-08 00:45:00,58.7,55.2,29.95,North,352,0.0,0.0,88,0.00,,,0.00,Wunderground v.1.15,2013-08-08 05:45:00,
2013-08-08 00:55:00,58.6,55.4,29.95,North,350,0.0,0.0,89,0.00,,,0.00,Wunderground v.1.15,2013-08-08 05:55:00,
2013-08-08 01:00:00,58.4,55.2,29.95,NNW,344,0.0,0.0,89,0.00,,,0.00,Wunderground v.1.15,2013-08-08 06:00:00,
2013-08-08 01:10:00,58.4,55.5,29.95,NNW,343,0.0,0.0,90,0.00,,,0.00,Wunderground v.1.15,2013-08-08 06:10:00,
2013-08-08 01:20:00,58.3,55.1,29.95,North,349,0.0,0.0,89,0.00,,,0.00,Wunderground v.1.15,2013-08-08 06:20:00,
2013-08-08 01:30:00,58.0,54.8,29.95,NNW,343,0.0,0.0,89,0.00,,,0.00,Wunderground v.1.15,2013-08-08 06:30:00,
2013-08-08 01:40:00,57.6,54.7,29.95,NNW,343,0.0,0.0,90,0.00,,,0.00,Wunderground v.1.15,2013-08-08 06:40:00,
2013-08-08 01:50:00,57.5,54.6,29.95,NNW,340,0.0,0.0,90,0.00,,,0.00,Wunderground v.1.15,2013-08-08 06:50:00,
2013-08-08 01:55:00,57.5,54.6,29.95,NNW,337,0.0,0.0,90,0.00,,,0.00,Wunderground v.1.15,2013-08-08 06:55:00,
2013-08-08 02:00:00,57.6,55.0,29.95,NNW,347,0.0,0.0,91,0.00,,,0.00,Wunderground v.1.15,2013-08-08 07:00:00,
2013-08-08 02:10:00,57.3,54.7,29.95,NNW,347,0.0,0.0,91,0.00,,,0.00,Wunderground v.1.15,2013-08-08 07:10:00,
2013-08-08 02:20:00,57.0,54.4,29.95,NNW,346,0.0,0.0,91,0.00,,,0.00,Wunderground v.1.15,2013-08-08 07:20:00,
2013-08-08 02:30:00,57.0,54.7,29.95,NNW,344,0.0,0.0,92,0.00,,,0.00,Wunderground v.1.15,2013-08-08 07:30:00,
2013-08-08 02:40:00,57.3,55.3,29.95,NNW,335,0.0,0.0,93,0.00,,,0.00,Wunderground v.1.15,2013-08-08 07:40:00,
2013-08-08 02:45:00,57.2,55.2,29.95,NNW,337,0.0,0.0,93,0.00,,,0.00,Wunderground v.1.15,2013-08-08 07:45:00,
2013-08-08 02:55:00,57.0,54.7,29.95,NNW,342,0.0,0.0,92,0.00,,,0.00,Wunderground v.1.15,2013-08-08 07:55:00,
2013-08-08 03:00:00,56.9,54.6,29.94,NNW,335,0.0,0.0,92,0.00,,,0.00,Wunderground v.1.15,2013-08-08 08:00:00,
2013-08-08 03:10:00,56.9,54.6,29.94,NNW,342,0.0,0.0,92,0.00,,,0.00,Wunderground v.1.15,2013-08-08 08:10:00,
2013-08-08 03:15:00,57.0,55.0,29.94,NNW,335,0.0,0.0,93,0.00,,,0.00,Wunderground v.1.15,2013-08-08 08:15:00,
2013-08-08 03:25:00,57.2,54.9,29.94,NNW,333,0.0,0.0,92,0.00,,,0.00,Wunderground v.1.15,2013-08-08 08:25:00,
2013-08-08 03:35:00,57.2,54.9,29.94,NNW,340,0.0,0.0,92,0.00,,,0.00,Wunderground v.1.15,2013-08-08 08:35:00,
2013-08-08 03:40:00,57.2,54.9,29.94,NNW,333,0.0,0.0,92,0.00,,,0.00,Wunderground v.1.15,2013-08-08 08:40:00,
2013-08-08 03:45:00,57.3,55.0,29.93,NNW,332,0.0,0.0,92,0.00,,,0.00,Wunderground v.1.15,2013-08-08 08:45:00,
2013-08-08 03:55:00,57.6,55.3,29.93,NNW,332,0.0,0.0,92,0.00,,,0.00,Wunderground v.1.15,2013-08-08 08:55:00,
2013-08-08 04:05:00,57.6,55.3,29.93,NNW,329,0.0,0.0,92,0.00,,,0.00,Wunderground v.1.15,2013-08-08 09:05:00,
2013-08-08 04:15:00,57.6,55.3,29.93,NNW,332,0.0,0.0,92,0.00,,,0.00,Wunderground v.1.15,2013-08-08 09:15:00,
2013-08-08 04:25:00,57.3,54.7,29.93,NNW,329,0.0,0.0,91,0.00,,,0.00,Wunderground v.1.15,2013-08-08 09:25:00,
2013-08-08 04:35:00,57.5,54.9,29.92,NNW,332,0.0,0.0,91,0.00,,,0.00,Wunderground v.1.15,2013-08-08 09:35:00,
2013-08-08 04:40:00,57.5,54.9,29.92,NNW,333,0.0,0.0,91,0.00,,,0.00,Wunderground v.1.15,2013-08-08 09:40:00,
2013-08-08 04:45:00,57.6,55.3,29.92,NNW,333,0.0,0.0,92,0.00,,,0.00,Wunderground v.1.15,2013-08-08 09:45:00,
2013-08-08 04:55:00,57.8,55.5,29.92,NNW,336,0.0,0.0,92,0.00,,,0.00,Wunderground v.1.15,2013-08-08 09:55:00,
2013-08-08 05:00:00,58.0,55.7,29.92,NNW,333,0.0,0.0,92,0.00,,,0.00,Wunderground v.1.15,2013-08-08 10:00:00,
2013-08-08 05:10:00,57.6,55.6,29.92,NNW,335,0.0,0.0,93,0.00,,,0.00,Wunderground v.1.15,2013-08-08 10:10:00,
2013-08-08 05:20:00,58.0,56.0,29.91,NNW,333,0.0,0.0,93,0.00,,,0.00,Wunderground v.1.15,2013-08-08 10:20:00,
2013-08-08 05:30:00,58.1,56.1,29.91,NW,325,0.0,0.0,93,0.00,,,0.00,Wunderground v.1.15,2013-08-08 10:30:00,
2013-08-08 05:40:00,58.4,56.7,29.91,NW,326,0.0,0.0,94,0.00,,,0.00,Wunderground v.1.15,2013-08-08 10:40:00,
2013-08-08 05:50:00,58.6,56.9,29.91,NW,320,0.0,0.0,94,0.00,,,0.00,Wunderground v.1.15,2013-08-08 10:50:00,
2013-08-08 06:00:00,58.9,57.5,29.92,NNW,329,0.0,0.0,95,0.00,,,0.00,Wunderground v.1.15,2013-08-08 11:00:00,
2013-08-08 06:10:00,58.7,57.3,29.92,NW,322,0.0,0.0,95,0.00,,,0.00,Wunderground v.1.15,2013-08-08 11:10:00,
2013-08-08 06:20:00,58.7,57.3,29.92,NNW,329,0.0,0.0,95,0.00,,,0.00,Wunderground v.1.15,2013-08-08 11:20:00,
2013-08-08 06:25:00,58.7,57.3,29.92,NW,323,0.0,0.0,95,0.00,,,0.00,Wunderground v.1.15,2013-08-08 11:25:00,
2013-08-08 06:30:00,58.6,57.2,29.93,NNW,330,0.0,0.0,95,0.00,,,0.00,Wunderground v.1.15,2013-08-08 11:30:00,
2013-08-08 06:40:00,58.6,57.2,29.93,NW,326,0.0,0.0,95,0.00,,,0.00,Wunderground v.1.15,2013-08-08 11:40:00,
2013-08-08 06:45:00,58.9,57.8,29.93,NW,318,0.0,0.0,96,0.00,,,0.00,Wunderground v.1.15,2013-08-08 11:45:00,
2013-08-08 06:55:00,59.0,57.9,29.93,NW,319,0.0,0.0,96,0.00,,,0.00,Wunderground v.1.15,2013-08-08 11:55:00,
2013-08-08 07:05:00,59.2,58.1,29.93,NW,319,0.0,0.0,96,0.00,,,0.00,Wunderground v.1.15,2013-08-08 12:05:00,
2013-08-08 07:10:00,59.2,58.1,29.93,NW,316,0.0,0.0,96,0.00,,,0.00,Wunderground v.1.15,2013-08-08 12:10:00,
2013-08-08 07:15:00,59.3,58.2,29.95,NW,320,0.0,0.0,96,0.00,,,0.00,Wunderground v.1.15,2013-08-08 12:15:00,
2013-08-08 07:25:00,59.2,58.1,29.95,NW,319,0.0,0.0,96,0.00,,,0.00,Wunderground v.1.15,2013-08-08 12:25:00,
2013-08-08 07:30:00,59.2,58.1,29.95,NW,318,0.0,0.0,96,0.00,,,0.00,Wunderground v.1.15,2013-08-08 12:30:00,
2013-08-08 07:35:00,59.2,58.1,29.95,NW,323,0.0,0.0,96,0.00,,,0.00,Wunderground v.1.15,2013-08-08 12:35:00,
2013-08-08 07:45:00,59.3,58.2,29.95,NW,313,0.0,0.0,96,0.00,,,0.00,Wunderground v.1.15,2013-08-08 12:45:00,
2013-08-08 07:55:00,59.3,58.2,29.95,West,272,0.0,0.0,96,0.00,,,0.00,Wunderground v.1.15,2013-08-08 12:55:00,
2013-08-08 08:05:00,59.3,57.9,29.96,West,260,0.0,0.0,95,0.00,,,0.00,Wunderground v.1.15,2013-08-08 13:05:00,
2013-08-08 08:15:00,59.3,57.0,29.97,SW,232,0.0,0.0,92,0.00,,,0.00,Wunderground v.1.15,2013-08-08 13:15:00,
2013-08-08 08:25:00,59.2,56.6,29.97,SW,217,0.0,0.0,91,0.00,,,0.00,Wunderground v.1.15,2013-08-08 13:25:00,
2013-08-08 08:35:00,59.5,56.9,29.98,SW,233,0.0,0.0,91,0.00,,,0.00,Wunderground v.1.15,2013-08-08 13:35:00,
2013-08-08 08:45:00,59.9,57.3,29.97,SW,233,0.0,0.0,91,0.00,,,0.00,Wunderground v.1.15,2013-08-08 13:45:00,
2013-08-08 08:55:00,60.2,57.3,29.97,SW,233,0.0,0.0,90,0.00,,,0.00,Wunderground v.1.15,2013-08-08 13:55:00,
2013-08-08 09:05:00,60.5,57.2,29.98,SW,232,0.0,0.0,89,0.00,,,0.00,Wunderground v.1.15,2013-08-08 14:05:00,
2013-08-08 09:15:00,61.0,57.4,29.99,SSW,208,0.0,0.0,88,0.00,,,0.00,Wunderground v.1.15,2013-08-08 14:15:00,
2013-08-08 09:25:00,61.3,57.1,29.99,South,181,0.0,0.0,86,0.00,,,0.00,Wunderground v.1.15,2013-08-08 14:25:00,
2013-08-08 09:30:00,61.6,56.7,29.99,SW,220,0.0,0.0,84,0.00,,,0.00,Wunderground v.1.15,2013-08-08 14:30:00,
2013-08-08 09:40:00,62.4,56.8,29.99,SSW,192,0.0,0.0,82,0.00,,,0.00,Wunderground v.1.15,2013-08-08 14:40:00,
2013-08-08 09:45:00,62.4,56.8,29.99,SSW,200,0.0,0.0,82,0.00,,,0.00,Wunderground v.1.15,2013-08-08 14:45:00,
2013-08-08 09:55:00,62.4,56.8,29.99,WSW,253,0.0,0.0,82,0.00,,,0.00,Wunderground v.1.15,2013-08-08 14:55:00,
2013-08-08 10:00:00,62.3,56.4,30.00,SW,234,0.0,0.0,81,0.00,,,0.00,Wunderground v.1.15,2013-08-08 15:00:00,
2013-08-08 10:10:00,62.3,56.0,30.00,West,281,0.0,0.0,80,0.00,,,0.00,Wunderground v.1.15,2013-08-08 15:10:00,
2013-08-08 10:15:00,62.3,56.0,29.99,South,179,0.0,0.0,80,0.00,,,0.00,Wunderground v.1.15,2013-08-08 15:15:00,
2013-08-08 10:20:00,62.6,56.3,29.99,WSW,241,0.0,0.0,80,0.00,,,0.00,Wunderground v.1.15,2013-08-08 15:20:00,
2013-08-08 10:30:00,63.4,56.8,29.99,SSE,165,0.0,0.0,79,0.00,,,0.00,Wunderground v.1.15,2013-08-08 15:30:00,
2013-08-08 10:40:00,64.8,56.7,29.99,SW,220,0.0,0.0,75,0.00,,,0.00,Wunderground v.1.15,2013-08-08 15:40:00,
2013-08-08 10:50:00,64.8,55.9,29.99,South,179,0.0,0.0,73,0.00,,,0.00,Wunderground v.1.15,2013-08-08 15:50:00,
2013-08-08 10:55:00,64.8,56.3,29.99,WSW,240,0.0,0.0,74,0.00,,,0.00,Wunderground v.1.15,2013-08-08 15:55:00,
2013-08-08 11:00:00,65.5,57.0,29.99,South,186,0.0,0.0,74,0.00,,,0.00,Wunderground v.1.15,2013-08-08 16:00:00,
2013-08-08 11:10:00,66.3,56.6,29.99,SSW,199,0.0,0.0,71,0.00,,,0.00,Wunderground v.1.15,2013-08-08 16:10:00,
2013-08-08 11:20:00,65.3,56.0,29.98,SSW,208,0.0,0.0,72,0.00,,,0.00,Wunderground v.1.15,2013-08-08 16:20:00,
2013-08-08 11:25:00,65.2,55.9,29.98,South,181,0.0,0.0,72,0.00,,,0.00,Wunderground v.1.15,2013-08-08 16:25:00,
2013-08-08 11:35:00,66.8,57.5,29.98,West,270,0.0,0.0,72,0.00,,,0.00,Wunderground v.1.15,2013-08-08 16:35:00,
2013-08-08 11:45:00,67.8,57.7,29.97,South,174,0.0,0.0,70,0.00,,,0.00,Wunderground v.1.15,2013-08-08 16:45:00,
2013-08-08 11:55:00,67.9,57.4,29.97,WNW,295,0.0,0.0,69,0.00,,,0.00,Wunderground v.1.15,2013-08-08 16:55:00,
2013-08-08 12:05:00,68.3,56.5,29.97,SSW,210,0.0,0.0,66,0.00,,,0.00,Wunderground v.1.15,2013-08-08 17:05:00,
2013-08-08 12:10:00,68.6,56.8,29.97,WSW,241,0.0,0.0,66,0.00,,,0.00,Wunderground v.1.15,2013-08-08 17:10:00,
2013-08-08 12:15:00,68.6,56.4,29.97,South,178,0.0,0.0,65,0.00,,,0.00,Wunderground v.1.15,2013-08-08 17:15:00,
2013-08-08 12:25:00,69.1,57.3,29.97,South,181,0.0,0.0,66,0.00,,,0.00,Wunderground v.1.15,2013-08-08 17:25:00,
2013-08-08 12:30:00,69.6,57.7,29.97,SW,230,0.0,0.0,66,0.00,,,0.00,Wunderground v.1.15,2013-08-08 17:30:00,
2013-08-08 12:40:00,69.3,57.9,29.97,South,182,0.0,0.0,67,0.00,,,0.00,Wunderground v.1.15,2013-08-08 17:40:00,
2013-08-08 12:50:00,69.6,57.3,29.96,SSE,168,0.0,0.0,65,0.00,,,0.00,Wunderground v.1.15,2013-08-08 17:50:00,
2013-08-08 13:00:00,69.1,57.3,29.96,NW,320,0.0,0.0,66,0.00,,,0.00,Wunderground v.1.15,2013-08-08 18:00:00,
2013-08-08 13:10:00,69.1,57.7,29.96,SSE,164,0.0,0.0,67,0.00,,,0.00,Wunderground v.1.15,2013-08-08 18:10:00,
2013-08-08 13:15:00,69.8,58.3,29.96,SW,232,0.0,0.0,67,0.00,,,0.00,Wunderground v.1.15,2013-08-08 18:15:00,
2013-08-08 13:25:00,69.6,57.3,29.96,WNW,289,0.0,0.0,65,0.00,,,0.00,Wunderground v.1.15,2013-08-08 18:25:00,
2013-08-08 13:30:00,69.6,58.2,29.96,SSE,165,0.0,0.0,67,0.00,,,0.00,Wunderground v.1.15,2013-08-08 18:30:00,
2013-08-08 13:40:00,70.6,58.7,29.96,South,189,0.0,0.0,66,0.00,,,0.00,Wunderground v.1.15,2013-08-08 18:40:00,
2013-08-08 13:50:00,71.3,58.5,29.95,WSW,239,0.0,0.0,64,0.00,,,0.00,Wunderground v.1.15,2013-08-08 18:50:00,
2013-08-08 14:00:00,70.6,57.8,29.95,SSW,206,0.0,0.0,64,0.00,,,0.00,Wunderground v.1.15,2013-08-08 19:00:00,
2013-08-08 14:10:00,71.1,58.3,29.95,SSW,206,0.0,0.0,64,0.00,,,0.00,Wunderground v.1.15,2013-08-08 19:10:00,
2013-08-08 14:15:00,71.3,58.5,29.95,SW,215,0.0,0.0,64,0.00,,,0.00,Wunderground v.1.15,2013-08-08 19:15:00,
2013-08-08 14:25:00,71.6,58.3,29.95,SW,234,0.0,0.0,63,0.00,,,0.00,Wunderground v.1.15,2013-08-08 19:25:00,
2013-08-08 14:30:00,71.6,57.4,29.95,SSE,162,0.0,0.0,61,0.00,,,0.00,Wunderground v.1.15,2013-08-08 19:30:00,
2013-08-08 14:40:00,70.6,57.8,29.95,South,179,0.0,0.0,64,0.00,,,0.00,Wunderground v.1.15,2013-08-08 19:40:00,
2013-08-08 14:45:00,70.8,59.3,29.95,SSW,209,0.0,0.0,67,0.00,,,0.00,Wunderground v.1.15,2013-08-08 19:45:00,
2013-08-08 14:55:00,70.6,59.9,29.95,SW,223,0.0,0.0,69,0.00,,,0.00,Wunderground v.1.15,2013-08-08 19:55:00,
2013-08-08 15:05:00,71.5,59.5,29.95,South,178,0.0,0.0,66,0.00,,,0.00,Wunderground v.1.15,2013-08-08 20:05:00,
2013-08-08 15:15:00,71.6,60.1,29.94,West,272,0.0,0.0,67,0.00,,,0.00,Wunderground v.1.15,2013-08-08 20:15:00,
2013-08-08 15:25:00,72.1,60.5,29.94,SSW,208,0.0,0.0,67,0.00,,,0.00,Wunderground v.1.15,2013-08-08 20:25:00,
2013-08-08 15:35:00,72.0,61.3,29.93,SSW,206,0.0,0.0,69,0.00,,,0.00,Wunderground v.1.15,2013-08-08 20:35:00,
2013-08-08 15:40:00,72.3,60.3,29.93,SW,226,0.0,0.0,66,0.00,,,0.00,Wunderground v.1.15,2013-08-08 20:40:00,
2013-08-08 15:45:00,72.8,59.5,29.93,WSW,248,0.0,0.0,63,0.00,,,0.00,Wunderground v.1.15,2013-08-08 20:45:00,
2013-08-08 15:55:00,73.5,61.4,29.93,SSW,195,0.0,0.0,66,0.00,,,0.00,Wunderground v.1.15,2013-08-08 20:55:00,
2013-08-08 16:05:00,73.2,61.2,29.93,SW,229,0.0,0.0,66,0.00,,,0.00,Wunderground v.1.15,2013-08-08 21:05:00,
2013-08-08 16:15:00,72.7,61.9,29.93,NNW,333,0.0,0.0,69,0.00,,,0.00,Wunderground v.1.15,2013-08-08 21:15:00,
2013-08-08 16:30:00,71.3,60.2,29.93,South,189,0.0,0.0,68,0.00,,,0.00,Wunderground v.1.15,2013-08-08 21:30:00,
2013-08-08 16:35:00,71.1,60.4,29.93,South,178,0.0,0.0,69,0.00,,,0.00,Wunderground v.1.15,2013-08-08 21:35:00,
2013-08-08 16:45:00,71.1,60.0,29.92,South,186,0.0,0.0,68,0.00,,,0.00,Wunderground v.1.15,2013-08-08 21:45:00,
2013-08-08 16:55:00,70.9,60.2,29.92,SSW,195,0.0,0.0,69,0.00,,,0.00,Wunderground v.1.15,2013-08-08 21:55:00,
2013-08-08 17:05:00,71.3,60.6,29.92,SSW,209,0.0,0.0,69,0.00,,,0.00,Wunderground v.1.15,2013-08-08 22:05:00,
2013-08-08 17:15:00,71.3,61.0,29.92,South,189,0.0,0.0,70,0.00,,,0.00,Wunderground v.1.15,2013-08-08 22:15:00,
2013-08-08 17:25:00,71.1,60.4,29.92,SSW,193,0.0,0.0,69,0.00,,,0.00,Wunderground v.1.15,2013-08-08 22:25:00,
2013-08-08 17:40:00,71.5,61.2,29.92,West,265,0.0,0.0,70,0.00,,,0.00,Wunderground v.1.15,2013-08-08 22:40:00,
2013-08-08 17:45:00,71.5,60.8,29.92,SW,236,0.0,0.0,69,0.00,,,0.00,Wunderground v.1.15,2013-08-08 22:45:00,
2013-08-08 17:55:00,71.3,61.4,29.92,SW,233,0.0,0.0,71,0.00,,,0.00,Wunderground v.1.15,2013-08-08 22:55:00,
2013-08-08 18:00:00,71.1,61.2,29.92,WNW,282,0.0,0.0,71,0.00,,,0.00,Wunderground v.1.15,2013-08-08 23:00:00,
2013-08-08 18:10:00,70.8,61.3,29.92,West,267,0.0,0.0,72,0.00,,,0.00,Wunderground v.1.15,2013-08-08 23:10:00,
2013-08-08 18:15:00,70.6,61.1,29.93,SW,230,0.0,0.0,72,0.00,,,0.00,Wunderground v.1.15,2013-08-08 23:15:00,
2013-08-08 18:35:00,70.6,61.1,29.93,SW,226,0.0,0.0,72,0.00,,,0.00,Wunderground v.1.15,2013-08-08 23:35:00,
2013-08-08 18:45:00,70.4,60.9,29.93,SSW,195,0.0,0.0,72,0.00,,,0.00,Wunderground v.1.15,2013-08-08 23:45:00,
2013-08-08 19:00:00,69.9,60.8,29.92,WSW,250,0.0,0.0,73,0.00,,,0.00,Wunderground v.1.15,2013-08-09 00:00:00,
2013-08-08 19:10:00,70.3,60.4,29.92,SSW,209,0.0,0.0,71,0.00,,,0.00,Wunderground v.1.15,2013-08-09 00:10:00,
2013-08-08 19:15:00,69.9,60.1,29.92,SSW,210,0.0,0.0,71,0.00,,,0.00,Wunderground v.1.15,2013-08-09 00:15:00,
2013-08-08 19:30:00,68.9,59.9,29.92,West,263,0.0,0.0,73,0.00,,,0.00,Wunderground v.1.15,2013-08-09 00:30:00,
2013-08-08 19:35:00,68.8,60.2,29.92,West,263,0.0,0.0,74,0.00,,,0.00,Wunderground v.1.15,2013-08-09 00:35:00,
2013-08-08 19:45:00,68.4,59.8,29.93,WSW,254,0.0,0.0,74,0.00,,,0.00,Wunderground v.1.15,2013-08-09 00:45:00,
2013-08-08 20:00:00,68.1,59.9,29.93,WSW,254,0.0,0.0,75,0.00,,,0.00,Wunderground v.1.15,2013-08-09 01:00:00,
2013-08-08 20:10:00,67.9,60.1,29.93,WSW,254,0.0,0.0,76,0.00,,,0.00,Wunderground v.1.15,2013-08-09 01:10:00,
2013-08-08 20:15:00,67.8,60.0,29.93,WSW,254,0.0,0.0,76,0.00,,,0.00,Wunderground v.1.15,2013-08-09 01:15:00,
2013-08-08 20:25:00,67.4,59.9,29.93,WSW,254,0.0,0.0,77,0.00,,,0.00,Wunderground v.1.15,2013-08-09 01:25:00,
2013-08-08 20:30:00,67.4,60.3,29.93,WSW,254,0.0,0.0,78,0.00,,,0.00,Wunderground v.1.15,2013-08-09 01:30:00,
2013-08-08 20:40:00,67.1,60.4,29.93,WSW,254,0.0,0.0,79,0.00,,,0.00,Wunderground v.1.15,2013-08-09 01:40:00,
2013-08-08 20:45:00,66.9,60.2,29.93,WSW,254,0.0,0.0,79,0.00,,,0.00,Wunderground v.1.15,2013-08-09 01:45:00,
2013-08-08 20:55:00,66.4,60.0,29.93,WSW,254,0.0,0.0,80,0.00,,,0.00,Wunderground v.1.15,2013-08-09 01:55:00,
2013-08-08 21:05:00,65.8,60.2,29.93,WSW,254,0.0,0.0,82,0.00,,,0.00,Wunderground v.1.15,2013-08-09 02:05:00,
2013-08-08 21:15:00,65.3,60.0,29.93,WSW,254,0.0,0.0,83,0.00,,,0.00,Wunderground v.1.15,2013-08-09 02:15:00,
2013-08-08 21:25:00,64.8,59.9,29.93,WSW,254,0.0,0.0,84,0.00,,,0.00,Wunderground v.1.15,2013-08-09 02:25:00,
2013-08-08 21:30:00,64.5,59.6,29.94,WSW,254,0.0,0.0,84,0.00,,,0.00,Wunderground v.1.15,2013-08-09 02:30:00,
2013-08-08 21:40:00,64.0,59.7,29.94,WSW,254,0.0,0.0,86,0.00,,,0.00,Wunderground v.1.15,2013-08-09 02:40:00,
2013-08-08 21:45:00,63.9,59.6,29.93,WSW,254,0.0,0.0,86,0.00,,,0.00,Wunderground v.1.15,2013-08-09 02:45:00,
2013-08-08 21:55:00,63.5,59.6,29.93,WSW,254,0.0,0.0,87,0.00,,,0.00,Wunderground v.1.15,2013-08-09 02:55:00,
2013-08-08 22:00:00,63.4,59.8,29.93,WSW,254,0.0,0.0,88,0.00,,,0.00,Wunderground v.1.15,2013-08-09 03:00:00,
2013-08-08 22:10:00,63.1,59.8,29.93,WSW,254,0.0,0.0,89,0.00,,,0.00,Wunderground v.1.15,2013-08-09 03:10:00,
2013-08-08 22:15:00,62.9,59.6,29.93,WSW,254,0.0,0.0,89,0.00,,,0.00,Wunderground v.1.15,2013-08-09 03:15:00,
2013-08-08 22:25:00,62.6,59.6,29.93,WSW,254,0.0,0.0,90,0.00,,,0.00,Wunderground v.1.15,2013-08-09 03:25:00,
2013-08-08 22:30:00,62.4,59.7,29.93,WSW,254,0.0,0.0,91,0.00,,,0.00,Wunderground v.1.15,2013-08-09 03:30:00,
2013-08-08 22:40:00,62.3,59.9,29.93,WSW,254,0.0,0.0,92,0.00,,,0.00,Wunderground v.1.15,2013-08-09 03:40:00,
2013-08-08 22:50:00,62.1,59.7,29.93,WSW,254,0.0,0.0,92,0.00,,,0.00,Wunderground v.1.15,2013-08-09 03:50:00,
2013-08-08 22:55:00,62.0,59.6,29.93,WSW,254,0.0,0.0,92,0.00,,,0.00,Wunderground v.1.15,2013-08-09 03:55:00,
2013-08-08 23:05:00,61.8,59.8,29.94,WSW,254,0.0,0.0,93,0.00,,,0.00,Wunderground v.1.15,2013-08-09 04:05:00,
2013-08-08 23:10:00,61.8,59.8,29.94,WSW,254,0.0,0.0,93,0.00,,,0.00,Wunderground v.1.15,2013-08-09 04:10:00,
2013-08-08 23:15:00,61.6,59.6,29.93,WSW,254,0.0,0.0,93,0.00,,,0.00,Wunderground v.1.15,2013-08-09 04:15:00,
2013-08-08 23:20:00,61.5,59.5,29.93,WSW,254,0.0,0.0,93,0.00,,,0.00,Wunderground v.1.15,2013-08-09 04:20:00,
2013-08-08 23:25:00,61.3,59.6,29.93,WSW,254,0.0,0.0,94,0.00,,,0.00,Wunderground v.1.15,2013-08-09 04:25:00,
2013-08-08 23:30:00,61.2,59.5,29.94,WSW,254,0.0,0.0,94,0.00,,,0.00,Wunderground v.1.15,2013-08-09 04:30:00,
2013-08-08 23:40:00,60.9,59.2,29.94,WSW,254,0.0,0.0,94,0.00,,,0.00,Wunderground v.1.15,2013-08-09 04:40:00,
2013-08-08 23:45:00,60.9,59.2,29.95,WSW,254,0.0,0.0,94,0.00,,,0.00,Wunderground v.1.15,2013-08-09 04:45:00,
2013-08-08 23:55:00,60.7,59.3,29.95,WSW,254,0.0,0.0,95,0.00,,,0.00,Wunderground v.1.15,2013-08-09 04:55:00,